Time;durP1;ratioP1;P1;durP2;ratioP2;P2;SDS_P1;SDS_P2;PMS_P1;PMS_P2;Temp;Humidity;BMP_temperature;BMP_pressure;BME280_temperature;BME280_humidity;BME280_pressure;Samples;Min_cycle;Max_cycle;Signal;HPM_P1;HPM_P2
2023/04/13 00:00:14;;;;;;;36.80;19.50;;;;;;;8.63;66.25;99421.90;110864;1210;139648;-63
2023/04/13 00:02:40;;;;;;;34.20;16.90;;;;;;;8.63;66.27;99419.96;110948;1208;100279;-63
2023/04/13 00:05:10;;;;;;;34.40;18.20;;;;;;;8.63;66.39;99418.73;110921;1211;99004;-63
2023/04/13 00:07:39;;;;;;;32.30;18.20;;;;;;;8.58;66.36;99416.66;110937;1209;140183;-63
2023/04/13 00:10:08;;;;;;;34.00;17.90;;;;;;;8.54;66.49;99422.42;111027;1212;99042;-63
2023/04/13 00:12:47;;;;;;;30.70;17.20;;;;;;;8.54;66.54;99418.13;110779;1208;139817;-63
2023/04/13 00:15:20;;;;;;;35.20;18.80;;;;;;;8.53;66.68;99412.70;111024;1206;99069;-63
2023/04/13 00:17:46;;;;;;;35.60;17.90;;;;;;;8.51;66.69;99413.85;110982;1209;106978;-63
2023/04/13 00:20:13;;;;;;;31.60;17.20;;;;;;;8.50;66.76;99410.34;110807;1209;139602;-63
2023/04/13 00:22:41;;;;;;;40.10;18.30;;;;;;;8.50;66.82;99402.88;111044;1207;99068;-63
2023/04/13 00:25:07;;;;;;;37.00;16.90;;;;;;;8.46;66.87;99395.95;110955;1209;140637;-63
2023/04/13 00:27:32;;;;;;;37.40;18.00;;;;;;;8.43;66.91;99398.81;111083;1211;98937;-63
2023/04/13 00:29:57;;;;;;;34.50;18.10;;;;;;;8.40;66.95;99396.84;110974;1211;98996;-63
2023/04/13 00:32:24;;;;;;;32.80;17.40;;;;;;;8.37;67.04;99396.46;110899;1211;139881;-63
2023/04/13 00:34:50;;;;;;;34.30;17.00;;;;;;;8.33;67.06;99396.67;111059;1211;100457;-63
2023/04/13 00:37:17;;;;;;;31.00;17.20;;;;;;;8.29;67.10;99403.27;111042;1206;138934;-66
2023/04/13 00:39:44;;;;;;;33.90;16.40;;;;;;;8.25;67.16;99404.73;110958;1209;99525;-63
2023/04/13 00:42:11;;;;;;;33.90;17.70;;;;;;;8.23;67.18;99405.37;110875;1212;139458;-63
2023/04/13 00:44:36;;;;;;;30.20;15.80;;;;;;;8.21;67.27;99410.10;110965;1212;98994;-63
2023/04/13 00:47:03;;;;;;;33.70;17.50;;;;;;;8.18;67.35;99412.77;110952;1206;100306;-63
2023/04/13 00:49:32;;;;;;;32.60;14.90;;;;;;;8.16;67.34;99418.75;110908;1210;138868;-63
2023/04/13 00:52:02;;;;;;;30.40;17.70;;;;;;;8.11;67.42;99418.98;111074;1208;99413;-63
2023/04/13 00:54:28;;;;;;;30.80;17.10;;;;;;;8.08;67.54;99425.58;110833;1211;141360;-63
2023/04/13 00:56:58;;;;;;;32.40;17.70;;;;;;;8.05;67.54;99426.23;111032;1208;99474;-63
2023/04/13 00:59:28;;;;;;;33.00;18.80;;;;;;;8.02;67.59;99430.66;110993;1210;108559;-63
2023/04/13 01:01:57;;;;;;;39.30;18.60;;;;;;;8.01;67.72;99433.95;110993;1211;139067;-63
2023/04/13 01:04:26;;;;;;;32.10;18.00;;;;;;;8.00;67.71;99433.98;111172;1211;99517;-63
2023/04/13 01:07:15;;;;;;;38.00;19.90;;;;;;;7.99;67.86;99437.05;110973;1208;141192;-63
2023/04/13 01:09:48;;;;;;;41.80;19.30;;;;;;;7.99;67.83;99451.65;110958;1206;99628;-63
2023/04/13 01:12:24;;;;;;;34.80;19.50;;;;;;;7.95;67.94;99455.77;110853;1209;139695;-63
2023/04/13 01:15:11;;;;;;;38.80;19.10;;;;;;;7.94;68.07;99453.54;111167;1206;98961;-63
2023/04/13 01:17:38;;;;;;;36.50;20.40;;;;;;;7.96;68.14;99458.02;111098;1211;99364;-63
2023/04/13 01:20:14;;;;;;;37.30;19.30;;;;;;;7.98;68.22;99463.08;110925;1210;141027;-63
2023/04/13 01:22:45;;;;;;;35.50;19.20;;;;;;;8.00;68.29;99465.64;110939;1209;101201;-63
2023/04/13 01:25:11;;;;;;;;;;;;;;;8.01;68.42;99463.64;110924;1211;139310;-63
2023/04/13 01:27:54;;;;;;;31.40;17.50;;;;;;;7.99;68.46;99458.92;110891;1209;98999;-63
2023/04/13 01:30:23;;;;;;;33.30;17.80;;;;;;;8.00;68.46;99454.63;110785;1209;139673;-63
2023/04/13 01:32:51;;;;;;;38.60;18.80;;;;;;;8.00;68.39;99456.23;111040;1211;115088;-63
2023/04/13 01:35:18;;;;;;;31.20;17.60;;;;;;;7.97;68.43;99450.85;111056;1211;100187;-64
2023/04/13 01:37:44;;;;;;;37.60;17.60;;;;;;;7.97;68.58;99451.05;110837;1209;139634;-64
2023/04/13 01:40:11;;;;;;;34.30;17.90;;;;;;;7.96;68.62;99445.95;110985;1211;98955;-64
2023/04/13 01:42:41;;;;;;;32.50;17.10;;;;;;;7.95;68.68;99442.46;111094;1206;139542;-64
2023/04/13 01:45:34;;;;;;;29.50;16.30;;;;;;;7.95;68.84;99443.52;111005;1211;113046;-64
2023/04/13 01:48:12;;;;;;;31.00;16.40;;;;;;;7.97;68.91;99443.56;111078;1211;99357;-64
2023/04/13 01:50:44;;;;;;;30.30;16.80;;;;;;;8.00;68.93;99441.84;110942;1209;107607;-64
2023/04/13 01:53:16;;;;;;;31.30;16.50;;;;;;;8.01;68.92;99439.98;110984;1215;98940;-64
2023/04/13 01:55:43;;;;;;;31.80;16.40;;;;;;;8.02;68.97;99435.31;111001;1206;139424;-64
2023/04/13 01:58:11;;;;;;;30.20;16.60;;;;;;;8.02;69.01;99432.66;111063;1208;99061;-64
2023/04/13 02:00:38;;;;;;;29.90;16.20;;;;;;;8.03;69.07;99430.83;111062;1207;139133;-64
2023/04/13 02:03:07;;;;;;;28.30;16.50;;;;;;;8.02;69.09;99420.52;111069;1211;99047;-64
2023/04/13 02:05:35;;;;;;;32.90;17.20;;;;;;;8.02;69.12;99419.84;110927;1210;99101;-64
2023/04/13 02:08:02;;;;;;;28.20;15.70;;;;;;;8.05;69.24;99429.79;110982;1211;140419;-64
2023/04/13 02:10:28;;;;;;;34.20;16.10;;;;;;;8.09;69.23;99433.68;110933;1211;99052;-64
2023/04/13 02:12:53;;;;;;;27.70;15.40;;;;;;;8.13;69.28;99437.22;110887;1206;138795;-64
2023/04/13 02:15:19;;;;;;;29.70;15.90;;;;;;;8.15;69.28;99444.42;111079;1211;98996;-64
2023/04/13 02:17:45;;;;;;;29.80;16.50;;;;;;;8.15;69.33;99450.82;111039;1209;99067;-64
2023/04/13 02:20:11;;;;;;;28.80;15.00;;;;;;;8.15;69.28;99451.89;110965;1209;138960;-64
2023/04/13 02:22:38;;;;;;;32.90;16.70;;;;;;;8.13;69.28;99452.18;110961;1212;99046;-64
2023/04/13 02:25:05;;;;;;;25.50;15.50;;;;;;;8.12;69.40;99455.26;110881;1222;140239;-61
2023/04/13 02:27:31;;;;;;;27.40;15.60;;;;;;;8.13;69.33;99459.98;111126;1209;99124;-60
2023/04/13 02:29:57;;;;;;;27.70;15.20;;;;;;;8.14;69.43;99456.71;111011;1208;99348;-62
2023/04/13 02:32:23;;;;;;;35.00;16.40;;;;;;;8.17;69.42;99458.39;111193;1211;138437;-61
2023/04/13 02:34:49;;;;;;;29.70;16.30;;;;;;;8.18;69.51;99456.18;111078;1208;98977;-61
2023/04/13 02:37:14;;;;;;;32.60;15.70;;;;;;;8.20;69.58;99456.09;110940;1206;141090;-61
2023/04/13 02:39:40;;;;;;;28.50;14.80;;;;;;;8.20;69.65;99456.06;111024;1210;99052;-60
2023/04/13 02:42:06;;;;;;;27.00;15.80;;;;;;;8.21;69.56;99459.08;110810;1211;139737;-61
2023/04/13 02:44:32;;;;;;;28.30;16.10;;;;;;;8.17;69.65;99462.31;110933;1206;99032;-61
2023/04/13 02:46:58;;;;;;;28.90;16.20;;;;;;;8.17;69.64;99465.52;111038;1211;98964;-61
2023/04/13 02:49:23;;;;;;;31.20;16.40;;;;;;;8.16;69.75;99462.67;110974;1211;139221;-61
2023/04/13 02:51:49;;;;;;;39.00;19.70;;;;;;;8.18;69.70;99461.91;111037;1206;99035;-60
2023/04/13 02:54:15;;;;;;;39.50;20.00;;;;;;;8.17;69.78;99464.60;111083;1211;139548;-61
2023/04/13 02:56:43;;;;;;;46.30;22.50;;;;;;;8.19;69.90;99466.66;111071;1207;111762;-61
2023/04/13 02:59:09;;;;;;;39.10;22.40;;;;;;;8.22;69.98;99466.13;111024;1210;100094;-61
2023/04/13 03:01:35;;;;;;;37.60;22.00;;;;;;;8.20;69.84;99465.52;110787;1206;140960;-61
2023/04/13 03:04:01;;;;;;;40.20;21.00;;;;;;;8.15;69.91;99462.73;111068;1206;98928;-61
2023/04/13 03:06:26;;;;;;;37.70;20.30;;;;;;;8.12;69.86;99459.51;110866;1206;138743;-61
2023/04/13 03:08:52;;;;;;;33.30;17.70;;;;;;;8.11;70.01;99461.50;111048;1209;100619;-61
2023/04/13 03:11:19;;;;;;;32.40;17.30;;;;;;;8.10;69.98;99459.08;111011;1209;99052;-60
2023/04/13 03:13:45;;;;;;;34.00;18.40;;;;;;;8.09;70.14;99459.31;110790;1206;138890;-60
2023/04/13 03:16:10;;;;;;;28.00;15.90;;;;;;;8.11;70.18;99461.50;111122;1210;98965;-61
2023/04/13 03:18:37;;;;;;;26.40;16.40;;;;;;;8.12;70.25;99467.17;110968;1206;140527;-61
2023/04/13 03:21:04;;;;;;;28.80;15.10;;;;;;;8.11;70.31;99466.49;110985;1211;99606;-61
2023/04/13 03:23:30;;;;;;;34.90;16.90;;;;;;;8.12;70.27;99467.34;110992;1211;99398;-61
2023/04/13 03:25:55;;;;;;;27.80;15.90;;;;;;;8.13;70.29;99462.84;110770;1209;138826;-61
2023/04/13 03:28:22;;;;;;;25.10;15.40;;;;;;;8.14;70.35;99460.65;110993;1211;99406;-61
2023/04/13 03:30:47;;;;;;;26.90;15.60;;;;;;;8.12;70.30;99462.35;110957;1212;139395;-60
2023/04/13 03:33:13;;;;;;;31.30;15.30;;;;;;;8.10;70.32;99469.21;111051;1211;99022;-61
2023/04/13 03:35:38;;;;;;;28.50;15.90;;;;;;;8.08;70.38;99469.33;111037;1208;98949;-61
2023/04/13 03:38:03;;;;;;;27.50;15.80;;;;;;;8.04;70.32;99467.58;110867;1219;140987;-61
2023/04/13 03:40:29;;;;;;;28.60;14.60;;;;;;;8.04;70.49;99467.38;110974;1208;98999;-61
2023/04/13 03:42:54;;;;;;;30.70;15.90;;;;;;;8.05;70.52;99468.95;110807;1211;139780;-64
2023/04/13 03:45:19;;;;;;;30.60;15.60;;;;;;;8.06;70.54;99471.90;110967;1211;99091;-61
2023/04/13 03:47:45;;;;;;;27.80;16.00;;;;;;;8.09;70.54;99473.91;111011;1209;99057;-61
2023/04/13 03:50:10;;;;;;;26.50;15.40;;;;;;;8.10;70.61;99470.09;110892;1206;140822;-60
2023/04/13 03:52:35;;;;;;;24.40;14.30;;;;;;;8.12;70.57;99472.50;111064;1207;99136;-61
2023/04/13 03:55:02;;;;;;;28.90;15.50;;;;;;;8.11;70.55;99471.28;110864;1211;140735;-61
2023/04/13 03:57:28;;;;;;;27.70;15.10;;;;;;;8.13;70.72;99466.54;111022;1209;99116;-61
2023/04/13 03:59:53;;;;;;;30.00;14.40;;;;;;;8.14;70.61;99463.86;111102;1211;99374;-61
2023/04/13 04:02:19;;;;;;;30.80;13.40;;;;;;;8.15;70.67;99468.05;110934;1210;138828;-62
2023/04/13 04:04:44;;;;;;;28.30;13.90;;;;;;;8.17;70.65;99466.02;110999;1208;99025;-60
2023/04/13 04:07:10;;;;;;;27.00;13.80;;;;;;;8.18;70.55;99467.75;110907;1211;140370;-61
2023/04/13 04:09:35;;;;;;;30.60;15.30;;;;;;;8.19;70.58;99472.31;110975;1210;99048;-60
2023/04/13 04:12:01;;;;;;;26.30;15.30;;;;;;;8.19;70.61;99470.91;111132;1208;98947;-60
2023/04/13 04:14:26;;;;;;;30.90;15.10;;;;;;;8.20;70.62;99472.30;110828;1206;139850;-60
2023/04/13 04:16:51;;;;;;;26.30;14.20;;;;;;;8.21;70.69;99474.16;111014;1207;97581;-61
2023/04/13 04:19:17;;;;;;;27.40;14.50;;;;;;;8.22;70.73;99482.85;110888;1206;138615;-61
2023/04/13 04:21:45;;;;;;;33.50;14.50;;;;;;;8.22;70.71;99489.42;110945;1208;99259;-61
2023/04/13 04:24:19;;;;;;;29.20;14.40;;;;;;;8.25;70.72;99491.22;110980;1206;139394;-61
2023/04/13 04:26:49;;;;;;;28.60;15.20;;;;;;;8.26;70.73;99487.80;110937;1210;99100;-61
2023/04/13 04:29:20;;;;;;;24.10;14.30;;;;;;;8.25;70.66;99486.79;110992;1208;112720;-60
2023/04/13 04:31:51;;;;;;;27.40;14.50;;;;;;;8.23;70.72;99488.30;110886;1206;139405;-61
2023/04/13 04:34:20;;;;;;;30.90;14.50;;;;;;;8.22;70.71;99488.38;110980;1213;106504;-61
2023/04/13 04:36:49;;;;;;;30.10;14.90;;;;;;;8.21;70.70;99488.95;110832;1210;140615;-61
2023/04/13 04:39:21;;;;;;;25.70;14.00;;;;;;;8.21;70.71;99490.56;111059;1209;99485;-61
2023/04/13 04:41:54;;;;;;;29.50;14.40;;;;;;;8.24;70.73;99491.61;110944;1210;112796;-61
2023/04/13 04:44:23;;;;;;;30.50;14.00;;;;;;;8.25;70.81;99490.67;111007;1211;140235;-61
2023/04/13 04:46:51;;;;;;;27.70;14.80;;;;;;;8.28;70.73;99487.35;110985;1211;112913;-61
2023/04/13 04:49:17;;;;;;;26.60;14.20;;;;;;;8.31;70.67;99486.27;110881;1211;141029;-61
2023/04/13 04:51:43;;;;;;;28.20;13.80;;;;;;;8.32;70.74;99482.67;110926;1211;98948;-60
2023/04/13 04:54:10;;;;;;;27.40;14.40;;;;;;;8.32;70.76;99483.58;110991;1211;139412;-61
2023/04/13 04:56:35;;;;;;;30.00;14.80;;;;;;;8.35;70.77;99483.81;111042;1209;108734;-60
2023/04/13 04:59:02;;;;;;;25.30;14.00;;;;;;;8.36;70.78;99481.58;111009;1212;98947;-60
2023/04/13 05:01:28;;;;;;;31.10;14.60;;;;;;;8.37;70.81;99475.52;110884;1210;140306;-60
2023/04/13 05:03:54;;;;;;;27.70;14.00;;;;;;;8.36;70.74;99476.09;111006;1211;99843;-61
2023/04/13 05:06:19;;;;;;;32.70;14.40;;;;;;;8.37;70.79;99488.64;110868;1211;139230;-60
2023/04/13 05:08:45;;;;;;;32.40;15.00;;;;;;;8.33;70.68;99507.89;110944;1214;98944;-60
2023/04/13 05:11:10;;;;;;;37.90;14.80;;;;;;;8.29;70.74;99508.28;111000;1207;99600;-61
2023/04/13 05:13:35;;;;;;;36.00;15.10;;;;;;;8.27;70.75;99502.52;110935;1209;139259;-60
2023/04/13 05:16:01;;;;;;;28.60;15.10;;;;;;;8.28;70.82;99492.16;110978;1206;98916;-60
2023/04/13 05:18:29;;;;;;;29.50;14.50;;;;;;;8.32;70.90;99491.40;110758;1211;139715;-60
2023/04/13 05:20:55;;;;;;;24.60;14.40;;;;;;;8.37;70.91;99489.04;110942;1211;100084;-60
2023/04/13 05:23:20;;;;;;;30.60;15.00;;;;;;;8.43;70.77;99496.72;111066;1209;99081;-61
2023/04/13 05:25:45;;;;;;;34.30;15.30;;;;;;;8.45;70.84;99503.54;110859;1211;139096;-61
2023/04/13 05:28:11;;;;;;;30.50;15.80;;;;;;;8.46;70.92;99510.44;110986;1211;99004;-62
2023/04/13 05:30:36;;;;;;;29.90;15.70;;;;;;;8.51;71.00;99516.44;110850;1209;140287;-59
2023/04/13 05:33:04;;;;;;;26.10;14.50;;;;;;;8.54;70.97;99521.41;110903;1211;98999;-62
2023/04/13 05:35:30;;;;;;;28.80;16.90;;;;;;;8.57;70.89;99521.26;110864;1209;98935;-61
2023/04/13 05:37:55;;;;;;;29.30;15.20;;;;;;;8.59;70.91;99520.94;110893;1206;139705;-62
2023/04/13 05:40:20;;;;;;;31.50;15.40;;;;;;;8.60;70.90;99517.69;110983;1211;99027;-62
2023/04/13 05:42:46;;;;;;;26.50;15.00;;;;;;;8.60;70.87;99521.44;110757;1211;141276;-61
2023/04/13 05:45:12;;;;;;;31.50;15.20;;;;;;;8.59;70.88;99524.89;110951;1208;100013;-60
2023/04/13 05:47:37;;;;;;;32.80;15.30;;;;;;;8.58;70.92;99526.52;110863;1211;99044;-61
2023/04/13 05:50:03;;;;;;;34.30;15.30;;;;;;;8.59;70.92;99529.52;110846;1209;139470;-61
2023/04/13 05:52:29;;;;;;;37.10;17.40;;;;;;;8.60;71.02;99535.67;110680;1222;98951;-61
2023/04/13 05:54:54;;;;;;;35.20;16.60;;;;;;;8.62;71.01;99538.79;110743;1208;139186;-61
2023/04/13 05:57:20;;;;;;;30.90;15.30;;;;;;;8.62;70.95;99540.55;111062;1210;99396;-61
2023/04/13 05:59:45;;;;;;;31.50;14.70;;;;;;;8.63;70.96;99538.74;110775;1209;108602;-65
2023/04/13 06:02:11;;;;;;;31.90;14.90;;;;;;;8.65;71.09;99535.25;110830;1211;139101;-61
2023/04/13 06:04:36;;;;;;;28.20;14.30;;;;;;;8.71;71.14;99536.16;110969;1208;98938;-60
2023/04/13 06:07:03;;;;;;;30.30;15.20;;;;;;;8.77;71.11;99532.42;110721;1211;141496;-60
2023/04/13 06:09:28;;;;;;;28.40;14.20;;;;;;;8.82;71.04;99536.67;111009;1208;99101;-61
2023/04/13 06:11:53;;;;;;;24.50;13.50;;;;;;;8.83;71.01;99534.84;111025;1207;99052;-60
2023/04/13 06:14:19;;;;;;;29.00;14.50;;;;;;;8.81;70.94;99534.20;110802;1211;140772;-61
2023/04/13 06:16:45;;;;;;;32.70;13.40;;;;;;;8.84;71.03;99533.55;110854;1211;98957;-62
2023/04/13 06:19:11;;;;;;;31.80;13.70;;;;;;;8.87;71.00;99531.59;110930;1206;140797;-61
2023/04/13 06:21:37;;;;;;;27.30;14.00;;;;;;;8.92;71.04;99533.43;110872;1211;98965;-61
2023/04/13 06:24:02;;;;;;;25.80;14.30;;;;;;;8.99;71.08;99533.39;110808;1211;99198;-61
2023/04/13 06:26:27;;;;;;;28.90;13.60;;;;;;;9.04;71.02;99534.91;110809;1209;139389;-60
2023/04/13 06:28:53;;;;;;;28.20;13.00;;;;;;;9.08;70.96;99538.40;110928;1206;100259;-61
2023/04/13 06:31:19;;;;;;;30.20;13.40;;;;;;;9.12;71.04;99544.62;110962;1211;140722;-61
2023/04/13 06:33:46;;;;;;;27.90;13.10;;;;;;;9.16;70.94;99544.94;110879;1211;100161;-60
2023/04/13 06:36:11;;;;;;;21.90;12.40;;;;;;;9.19;70.98;99544.25;110883;1211;139222;-61
2023/04/13 06:38:36;;;;;;;28.50;13.70;;;;;;;9.24;71.02;99549.12;111204;1209;98986;-61
2023/04/13 06:41:02;;;;;;;27.00;13.20;;;;;;;9.30;70.97;99552.38;111019;1211;98999;-61
2023/04/13 06:43:28;;;;;;;22.50;12.10;;;;;;;9.33;70.92;99552.02;110997;1211;138815;-60
2023/04/13 06:46:01;;;;;;;32.80;13.10;;;;;;;9.35;70.82;99553.70;110832;1208;98924;-61
2023/04/13 06:48:28;;;;;;;23.50;12.70;;;;;;;9.34;70.83;99554.95;110518;1211;139714;-61
2023/04/13 06:50:57;;;;;;;27.40;14.80;;;;;;;9.38;70.85;99558.48;111020;1206;99026;-61
2023/04/13 06:53:23;;;;;;;25.00;13.20;;;;;;;9.40;70.80;99561.94;110842;1211;100150;-62
2023/04/13 06:55:48;;;;;;;27.90;13.60;;;;;;;9.42;70.77;99562.74;110776;1211;139975;-61
2023/04/13 06:58:14;;;;;;;39.00;14.30;;;;;;;9.45;70.78;99565.63;111051;1208;99044;-62
2023/04/13 07:00:39;;;;;;;29.70;13.30;;;;;;;9.46;70.88;99571.63;110694;1208;140041;-61
2023/04/13 07:03:05;;;;;;;26.60;14.10;;;;;;;9.46;70.65;99576.46;110914;1209;100239;-62
2023/04/13 07:05:30;;;;;;;23.70;11.80;;;;;;;9.45;70.66;99584.70;110789;1211;98992;-60
2023/04/13 07:07:56;;;;;;;23.70;13.30;;;;;;;9.45;70.64;99583.80;111015;1209;140290;-61
2023/04/13 07:10:21;;;;;;;26.00;12.30;;;;;;;9.43;70.61;99586.38;110929;1219;99029;-60
2023/04/13 07:12:47;;;;;;;30.30;12.80;;;;;;;9.45;70.57;99586.98;110620;1211;140855;-61
2023/04/13 07:15:12;;;;;;;23.50;12.80;;;;;;;9.51;70.63;99589.38;110907;1211;98934;-61
2023/04/13 07:17:38;;;;;;;28.30;13.50;;;;;;;9.53;70.57;99583.91;110899;1211;99024;-61
2023/04/13 07:20:04;;;;;;;31.60;14.00;;;;;;;9.56;70.52;99582.30;110855;1211;140172;-61
2023/04/13 07:22:34;;;;;;;23.60;12.30;;;;;;;9.62;70.60;99584.46;110813;1211;99965;-61
2023/04/13 07:25:00;;;;;;;28.20;13.30;;;;;;;9.67;70.50;99582.89;110994;1224;139706;-62
2023/04/13 07:27:26;;;;;;;28.20;12.90;;;;;;;9.71;70.47;99584.13;110852;1211;99952;-62
2023/04/13 07:29:53;;;;;;;91.10;19.60;;;;;;;9.75;70.47;99590.27;110869;1212;98694;-62
2023/04/13 07:32:19;;;;;;;329.90;31.00;;;;;;;9.83;70.37;99590.58;110873;1211;139516;-62
2023/04/13 07:34:45;;;;;;;116.00;21.80;;;;;;;9.90;70.47;99593.58;110802;1212;100436;-63
2023/04/13 07:37:10;;;;;;;43.60;17.30;;;;;;;9.98;70.52;99590.59;110825;1222;139105;-63
2023/04/13 07:39:35;;;;;;;88.10;19.00;;;;;;;10.09;70.50;99593.19;110971;1211;98947;-63
2023/04/13 07:42:01;;;;;;;78.90;20.10;;;;;;;10.19;70.51;99600.65;110969;1211;98952;-62
2023/04/13 07:44:26;;;;;;;46.20;14.40;;;;;;;10.25;70.41;99603.30;110814;1214;139118;-63
2023/04/13 07:46:53;;;;;;;29.90;13.90;;;;;;;10.33;70.27;99605.72;110987;1211;99000;-63
2023/04/13 07:49:18;;;;;;;34.90;14.10;;;;;;;10.42;70.41;99609.27;110887;1211;138776;-64
2023/04/13 07:51:44;;;;;;;39.90;14.80;;;;;;;10.51;70.41;99608.88;110869;1217;99000;-62
2023/04/13 07:54:09;;;;;;;28.40;14.00;;;;;;;10.60;70.24;99611.40;110988;1212;97793;-62
2023/04/13 07:56:35;;;;;;;40.40;15.50;;;;;;;10.64;70.25;99616.84;110764;1211;140024;-63
2023/04/13 07:59:00;;;;;;;30.70;12.70;;;;;;;10.71;70.32;99629.11;111030;1218;98962;-64
2023/04/13 08:01:26;;;;;;;32.40;13.10;;;;;;;10.73;70.21;99637.73;110853;1206;139457;-63
2023/04/13 08:03:52;;;;;;;22.40;12.80;;;;;;;10.78;70.05;99639.41;110879;1211;98956;-63
2023/04/13 08:06:19;;;;;;;40.40;14.30;;;;;;;10.85;70.13;99640.96;110858;1210;140669;-62
2023/04/13 08:08:45;;;;;;;32.50;13.00;;;;;;;10.94;70.15;99636.86;110907;1206;110891;-63
2023/04/13 08:11:11;;;;;;;31.10;12.90;;;;;;;10.99;70.07;99635.48;110993;1211;99129;-62
2023/04/13 08:13:36;;;;;;;24.20;13.10;;;;;;;11.01;70.05;99636.59;110965;1211;138798;-62
2023/04/13 08:16:02;;;;;;;23.50;11.90;;;;;;;11.07;69.97;99639.48;110973;1212;97826;-62
2023/04/13 08:18:31;;;;;;;29.60;13.30;;;;;;;11.16;69.89;99638.35;110882;1206;139322;-62
2023/04/13 08:20:57;;;;;;;22.60;10.70;;;;;;;11.28;69.93;99635.09;111004;1212;100525;-62
2023/04/13 08:23:22;;;;;;;18.40;9.20;;;;;;;11.37;69.87;99640.94;110978;1212;99625;-62
2023/04/13 08:25:48;;;;;;;20.10;9.10;;;;;;;11.42;69.77;99639.09;110940;1211;139264;-62
2023/04/13 08:28:13;;;;;;;17.40;8.60;;;;;;;11.43;69.66;99644.39;110997;1206;99044;-62
2023/04/13 08:30:39;;;;;;;14.80;8.70;;;;;;;11.44;69.63;99646.08;110864;1221;139879;-64
2023/04/13 08:33:06;;;;;;;26.50;8.40;;;;;;;11.47;69.56;99647.02;110975;1212;114166;-62
2023/04/13 08:35:31;;;;;;;16.70;7.70;;;;;;;11.46;69.61;99651.31;110967;1211;99009;-62
2023/04/13 08:37:57;;;;;;;17.20;9.00;;;;;;;11.47;69.73;99654.66;110867;1206;140800;-62
2023/04/13 08:40:22;;;;;;;15.80;8.60;;;;;;;11.47;69.57;99654.64;110971;1206;99044;-64
2023/04/13 08:42:48;;;;;;;20.70;9.90;;;;;;;11.45;69.57;99655.35;110877;1211;139678;-63
2023/04/13 08:45:14;;;;;;;26.90;9.50;;;;;;;11.46;69.54;99658.86;111089;1212;98937;-64
2023/04/13 08:47:40;;;;;;;19.70;9.50;;;;;;;11.48;69.51;99658.72;111110;1211;98965;-62
2023/04/13 08:50:07;;;;;;;16.20;9.50;;;;;;;11.46;69.49;99659.89;110914;1211;140011;-63
2023/04/13 08:52:36;;;;;;;18.50;10.40;;;;;;;11.46;69.62;99655.98;111012;1212;99530;-61
2023/04/13 08:55:04;;;;;;;18.10;10.50;;;;;;;11.47;69.60;99658.07;110884;1206;140489;-62
2023/04/13 08:57:30;;;;;;;18.80;9.00;;;;;;;11.55;69.69;99652.38;110934;1211;107850;-60
2023/04/13 08:59:57;;;;;;;17.10;8.10;;;;;;;11.62;69.69;99648.67;110959;1212;97810;-63
2023/04/13 09:02:27;;;;;;;21.20;10.10;;;;;;;11.69;69.77;99650.35;110797;1212;138870;-62
2023/04/13 09:04:54;;;;;;;20.80;8.80;;;;;;;11.78;69.70;99652.88;111020;1212;112934;-62
2023/04/13 09:07:25;;;;;;;19.50;8.90;;;;;;;11.86;69.71;99650.61;110761;1212;139467;-62
2023/04/13 09:09:58;;;;;;;15.80;7.50;;;;;;;11.94;69.74;99645.95;110950;1212;107330;-62
2023/04/13 09:12:28;;;;;;;13.40;7.10;;;;;;;12.03;69.87;99643.36;110750;1212;140401;-62
2023/04/13 09:14:53;;;;;;;13.50;7.80;;;;;;;12.16;69.92;99645.39;111152;1206;99017;-62
2023/04/13 09:17:25;;;;;;;11.70;7.30;;;;;;;12.27;69.82;99644.67;110927;1206;99032;-61
2023/04/13 09:19:52;;;;;;;16.90;8.20;;;;;;;12.30;69.69;99641.41;110796;1206;140295;-61
2023/04/13 09:22:18;;;;;;;16.10;7.90;;;;;;;12.33;69.77;99637.79;110968;1212;98967;-61
2023/04/13 09:24:43;;;;;;;10.10;6.80;;;;;;;12.39;69.74;99630.64;110839;1210;139545;-62
2023/04/13 09:27:22;;;;;;;11.80;6.80;;;;;;;12.40;69.51;99628.23;110779;1207;98956;-62
2023/04/13 09:29:52;;;;;;;10.10;7.00;;;;;;;12.45;69.61;99627.38;110856;1206;99782;-62
2023/04/13 09:32:23;;;;;;;12.90;6.90;;;;;;;12.50;69.49;99631.69;110723;1223;139428;-62
2023/04/13 09:35:03;;;;;;;10.50;6.50;;;;;;;12.48;69.46;99626.93;110813;1206;99105;-62
2023/04/13 09:37:31;;;;;;;10.50;5.90;;;;;;;12.52;69.19;99630.40;110709;1212;139409;-62
2023/04/13 09:40:10;;;;;;;12.30;6.10;;;;;;;12.51;69.18;99627.45;110925;1206;113058;-62
2023/04/13 09:42:36;;;;;;;12.20;6.40;;;;;;;12.60;69.28;99623.29;110647;1206;141211;-61
2023/04/13 09:45:02;;;;;;;13.70;6.50;;;;;;;12.73;69.34;99625.63;110911;1211;100581;-61
2023/04/13 09:47:39;;;;;;;8.90;5.40;;;;;;;12.84;69.13;99622.70;110841;1212;98964;-61
2023/04/13 09:50:27;;;;;;;10.90;5.60;;;;;;;12.87;68.87;99624.42;110887;1209;140239;-62
2023/04/13 09:53:03;;;;;;;12.90;6.30;;;;;;;12.93;68.97;99627.27;110815;1211;113185;-60
2023/04/13 09:55:34;;;;;;;8.80;5.80;;;;;;;12.97;68.80;99628.91;110718;1206;139086;-61
2023/04/13 09:58:12;;;;;;;9.50;6.00;;;;;;;13.04;68.83;99627.19;110762;1222;108148;-61
2023/04/13 10:00:40;;;;;;;12.70;5.60;;;;;;;13.15;68.84;99631.42;110687;1211;138810;-61
2023/04/13 10:03:10;;;;;;;11.80;6.40;;;;;;;13.28;68.88;99630.58;110969;1212;99130;-61
2023/04/13 10:05:37;;;;;;;11.60;6.50;;;;;;;13.41;68.91;99631.79;110735;1206;114111;-60
2023/04/13 10:08:03;;;;;;;10.00;7.00;;;;;;;13.52;68.75;99635.13;110863;1206;139569;-61
2023/04/13 10:10:29;;;;;;;7.70;5.50;;;;;;;13.53;68.42;99630.56;110907;1206;100262;-60
2023/04/13 10:12:57;;;;;;;7.10;5.30;;;;;;;13.52;68.34;99630.05;110909;1211;138352;-60
2023/04/13 10:15:28;;;;;;;10.30;5.70;;;;;;;13.52;68.29;99624.20;110993;1212;112528;-61
2023/04/13 10:18:12;;;;;;;;;;;;;;;13.60;68.40;99623.01;110784;1212;100443;-60
2023/04/13 10:20:39;;;;;;;12.20;6.70;;;;;;;13.69;68.33;99625.11;110787;1212;108057;-61
2023/04/13 10:23:05;;;;;;;10.70;7.40;;;;;;;13.69;68.09;99626.21;111030;1206;97932;-66
2023/04/13 10:25:31;;;;;;;13.00;6.80;;;;;;;13.66;68.01;99635.35;110775;1212;138933;-60
2023/04/13 10:27:57;;;;;;;12.80;6.50;;;;;;;13.65;67.83;99635.05;111014;1206;98973;-60
2023/04/13 10:30:23;;;;;;;8.30;5.20;;;;;;;13.65;67.91;99636.13;110968;1212;139084;-61
2023/04/13 10:33:00;;;;;;;10.10;5.70;;;;;;;13.68;67.56;99647.25;110982;1206;99060;-60
2023/04/13 10:35:26;;;;;;;8.50;5.40;;;;;;;13.59;67.42;99653.27;111034;1212;99024;-60
2023/04/13 10:37:57;;;;;;;17.20;5.20;;;;;;;13.59;67.23;99655.45;110923;1206;138309;-60
2023/04/13 10:40:23;;;;;;;10.10;5.70;;;;;;;13.57;67.12;99652.70;111044;1212;99161;-61
2023/04/13 10:42:49;;;;;;;10.10;4.60;;;;;;;13.63;67.26;99648.71;110863;1212;138772;-60
2023/04/13 10:45:22;;;;;;;8.10;4.40;;;;;;;13.74;67.14;99647.35;111064;1212;97791;-60
2023/04/13 10:47:48;;;;;;;8.60;4.20;;;;;;;13.79;66.89;99645.75;111031;1212;112418;-60
2023/04/13 10:50:26;;;;;;;7.80;3.50;;;;;;;13.84;66.77;99651.48;110907;1206;138852;-60
2023/04/13 10:53:18;;;;;;;5.50;3.80;;;;;;;13.89;66.69;99653.05;111006;1211;108222;-60
2023/04/13 10:55:43;;;;;;;7.60;4.70;;;;;;;13.95;66.59;99657.61;110872;1209;139430;-61
2023/04/13 10:58:17;;;;;;;13.00;5.00;;;;;;;13.99;66.41;99662.04;111052;1206;99995;-61
2023/04/13 11:00:43;;;;;;;10.40;4.90;;;;;;;14.06;66.45;99655.95;110947;1210;139009;-61
2023/04/13 11:03:09;;;;;;;12.10;4.70;;;;;;;14.20;66.30;99658.17;111057;1206;97746;-61
2023/04/13 11:05:34;;;;;;;10.50;3.70;;;;;;;14.27;66.11;99657.45;111063;1212;99050;-61
2023/04/13 11:08:05;;;;;;;4.40;2.70;;;;;;;14.27;65.73;99664.10;110958;1210;139378;-61
2023/04/13 11:10:31;;;;;;;4.00;2.20;;;;;;;14.25;65.26;99668.20;110913;1206;113867;-62
2023/04/13 11:12:57;;;;;;;5.20;2.60;;;;;;;14.22;64.81;99673.27;110959;1212;138887;-61